Time;durP1;ratioP1;P1;durP2;ratioP2;P2;SDS_P1;SDS_P2;PMS_P1;PMS_P2;Temp;Humidity;BMP_temperature;BMP_pressure;BME280_temperature;BME280_humidity;BME280_pressure;Samples;Min_cycle;Max_cycle;Signal;HPM_P1;HPM_P2
2023/07/27 00:02:06;;;;;;;0.27;0.27;;;13.20;99.90;;;;;;5088958;28;20193;-82
2023/07/27 00:04:32;;;;;;;0.20;0.20;;;13.20;99.90;;;;;;5085972;28;20493;-81
2023/07/27 00:06:57;;;;;;;0.10;0.10;;;13.40;99.90;;;;;;5087911;28;20189;-81
2023/07/27 00:09:23;;;;;;;0.10;0.10;;;13.20;99.90;;;;;;5087493;28;20553;-83
2023/07/27 00:11:49;;;;;;;0.10;0.10;;;13.20;99.90;;;;;;5087961;28;20184;-81
2023/07/27 00:14:14;;;;;;;0.10;0.10;;;13.20;99.90;;;;;;5087812;28;20663;-82
2023/07/27 00:16:40;;;;;;;0.20;0.20;;;13.20;99.90;;;;;;5091533;28;20189;-82
2023/07/27 00:19:05;;;;;;;0.10;0.10;;;13.20;99.90;;;;;;5089233;28;20857;-83
2023/07/27 00:21:31;;;;;;;0.20;0.20;;;13.20;99.90;;;;;;5093118;28;20219;-82
2023/07/27 00:23:56;;;;;;;0.20;0.20;;;13.20;99.90;;;;;;5096140;28;20240;-82
2023/07/27 00:26:22;;;;;;;0.10;0.10;;;13.10;99.90;;;;;;5085944;28;20557;-82
2023/07/27 00:28:47;;;;;;;0.10;0.10;;;13.20;99.90;;;;;;5087748;28;20193;-81
2023/07/27 00:31:13;;;;;;;0.20;0.20;;;13.20;99.90;;;;;;5086303;28;20557;-81
2023/07/27 00:33:38;;;;;;;0.30;0.30;;;13.10;99.90;;;;;;5087461;28;20200;-82
2023/07/27 00:36:04;;;;;;;0.20;0.20;;;13.10;99.90;;;;;;5086506;28;20275;-82
2023/07/27 00:38:29;;;;;;;0.20;0.20;;;13.10;99.90;;;;;;5089978;28;20649;-81
2023/07/27 00:40:55;;;;;;;0.20;0.20;;;13.10;99.90;;;;;;5091284;28;20331;-82
2023/07/27 00:43:21;;;;;;;0.20;0.20;;;13.10;99.90;;;;;;5068819;28;20225;-83
2023/07/27 00:45:47;;;;;;;0.20;0.20;;;13.10;99.90;;;;;;5081471;28;20177;-82
2023/07/27 00:48:13;;;;;;;0.30;0.30;;;13.10;99.90;;;;;;5082114;28;20185;-81
2023/07/27 00:50:39;;;;;;;0.10;0.10;;;13.10;99.90;;;;;;5088589;28;20493;-81
2023/07/27 00:53:07;;;;;;;0.10;0.10;;;13.20;99.90;;;;;;5085241;28;20218;-81
2023/07/27 00:55:33;;;;;;;0.20;0.20;;;13.20;99.90;;;;;;5083153;28;20201;-81
2023/07/27 00:57:59;;;;;;;0.10;0.10;;;13.20;99.90;;;;;;5088355;28;20527;-82
2023/07/27 01:00:26;;;;;;;0.10;0.10;;;13.20;99.90;;;;;;5083385;28;21191;-82
2023/07/27 01:02:51;;;;;;;0.10;0.10;;;13.20;99.90;;;;;;5081422;28;20922;-82
2023/07/27 01:05:17;;;;;;;0.10;0.10;;;13.20;99.90;;;;;;5075133;28;20450;-82
2023/07/27 01:07:42;;;;;;;0.10;0.10;;;13.30;99.90;;;;;;5076824;28;20196;-83
2023/07/27 01:10:10;;;;;;;0.13;0.13;;;13.30;99.90;;;;;;5083791;28;20754;-82
2023/07/27 01:12:45;;;;;;;0.10;0.10;;;13.30;99.90;;;;;;5086059;28;20182;-84
2023/07/27 01:15:14;;;;;;;0.10;0.10;;;13.30;99.90;;;;;;5087252;28;20450;-83
2023/07/27 01:17:43;;;;;;;0.30;0.30;;;13.40;99.90;;;;;;5094226;28;20439;-84
2023/07/27 01:20:17;;;;;;;0.20;0.20;;;13.40;99.90;;;;;;5085534;28;20447;-84
2023/07/27 01:23:09;;;;;;;0.30;0.30;;;13.40;99.90;;;;;;5081220;28;20435;-82
2023/07/27 01:25:56;;;;;;;0.30;0.30;;;13.40;99.90;;;;;;5088215;28;21021;-82
2023/07/27 01:28:40;;;;;;;0.37;0.37;;;13.40;99.90;;;;;;5088136;28;21075;-82
2023/07/27 01:31:12;;;;;;;0.20;0.20;;;13.40;99.90;;;;;;5086186;28;20798;-83
2023/07/27 01:33:43;;;;;;;0.40;0.40;;;13.30;99.90;;;;;;5086828;28;20447;-83
2023/07/27 01:36:13;;;;;;;0.20;0.20;;;13.20;99.90;;;;;;5088125;28;20943;-82
2023/07/27 01:38:42;;;;;;;0.10;0.10;;;13.20;99.90;;;;;;5085193;28;20431;-82
2023/07/27 01:41:09;;;;;;;0.20;0.20;;;13.20;99.90;;;;;;5085749;28;20994;-82
2023/07/27 01:43:35;;;;;;;0.27;0.27;;;13.20;99.90;;;;;;5088089;28;20552;-83
2023/07/27 01:46:01;;;;;;;0.20;0.20;;;13.20;99.90;;;;;;5083310;28;20459;-82
2023/07/27 01:48:28;;;;;;;0.10;0.10;;;13.30;99.90;;;;;;5087894;28;20447;-83
2023/07/27 01:50:55;;;;;;;0.10;0.10;;;13.20;99.90;;;;;;5087067;28;20870;-83
2023/07/27 01:53:22;;;;;;;0.13;0.13;;;13.20;99.90;;;;;;5085847;28;20447;-83
2023/07/27 01:55:49;;;;;;;0.20;0.20;;;13.20;99.90;;;;;;5087826;28;21005;-83
2023/07/27 01:58:19;;;;;;;0.10;0.10;;;13.30;99.90;;;;;;5087540;28;20439;-83
2023/07/27 02:00:45;;;;;;;0.10;0.10;;;13.20;99.90;;;;;;5089091;28;20441;-86
2023/07/27 02:03:11;;;;;;;0.10;0.10;;;13.20;99.90;;;;;;5091367;28;20509;-85
2023/07/27 02:05:37;;;;;;;0.10;0.10;;;13.20;99.90;;;;;;5087550;28;21152;-86
2023/07/27 02:08:03;;;;;;;0.10;0.10;;;13.20;99.90;;;;;;5090177;28;20473;-85
2023/07/27 02:10:30;;;;;;;0.20;0.20;;;13.20;99.90;;;;;;5088957;28;20382;-82
2023/07/27 02:13:04;;;;;;;0.10;0.10;;;13.20;99.90;;;;;;5091004;28;20863;-84
2023/07/27 02:15:39;;;;;;;0.10;0.10;;;13.20;99.90;;;;;;5088590;28;20439;-83
2023/07/27 02:18:15;;;;;;;0.10;0.10;;;13.20;99.90;;;;;;5084492;28;20442;-83
2023/07/27 02:20:41;;;;;;;0.10;0.10;;;13.20;99.90;;;;;;5084416;28;20492;-83
2023/07/27 02:23:08;;;;;;;0.10;0.10;;;13.20;99.90;;;;;;5086371;28;20482;-83
2023/07/27 02:25:33;;;;;;;0.10;0.10;;;13.20;99.90;;;;;;5086245;28;20442;-84
2023/07/27 02:27:59;;;;;;;0.10;0.10;;;13.20;99.90;;;;;;5091247;28;20435;-84
2023/07/27 02:30:24;;;;;;;0.10;0.10;;;13.10;99.90;;;;;;5089343;28;20225;-83
2023/07/27 02:32:50;;;;;;;0.10;0.10;;;13.10;99.90;;;;;;5088808;28;20221;-84
2023/07/27 02:35:16;;;;;;;0.20;0.20;;;13.10;99.90;;;;;;5090512;28;20635;-83
2023/07/27 02:37:41;;;;;;;0.10;0.10;;;13.10;99.90;;;;;;5092450;28;20198;-84
2023/07/27 02:40:07;;;;;;;0.17;0.17;;;13.10;99.90;;;;;;5089134;28;20168;-82
2023/07/27 02:42:33;;;;;;;0.20;0.20;;;13.00;99.90;;;;;;5094509;28;20221;-83
2023/07/27 02:44:58;;;;;;;0.13;0.13;;;13.00;99.90;;;;;;5090718;28;20486;-83
2023/07/27 02:47:24;;;;;;;0.10;0.10;;;12.90;99.90;;;;;;5090232;28;20257;-83
2023/07/27 02:49:49;;;;;;;0.10;0.10;;;12.90;99.90;;;;;;5089381;28;20219;-83
2023/07/27 02:52:15;;;;;;;0.10;0.10;;;12.90;99.90;;;;;;5090543;28;20191;-83
2023/07/27 02:54:40;;;;;;;0.10;0.10;;;12.90;99.90;;;;;;5091009;28;20517;-82
2023/07/27 02:57:06;;;;;;;0.20;0.20;;;12.80;99.90;;;;;;5090887;28;20221;-82
2023/07/27 02:59:31;;;;;;;0.10;0.10;;;12.80;99.90;;;;;;5091450;28;20189;-82
2023/07/27 03:01:57;;;;;;;0.10;0.10;;;12.80;99.90;;;;;;5090585;28;20200;-83
2023/07/27 03:04:22;;;;;;;0.10;0.10;;;12.80;99.90;;;;;;5088961;28;20299;-83
2023/07/27 03:06:48;;;;;;;0.10;0.10;;;12.70;99.90;;;;;;5089348;28;20260;-83
2023/07/27 03:09:14;;;;;;;0.10;0.10;;;12.80;99.90;;;;;;5086981;28;20193;-83
2023/07/27 03:11:39;;;;;;;0.10;0.10;;;12.70;99.90;;;;;;5087328;28;20185;-83
2023/07/27 03:14:05;;;;;;;0.10;0.10;;;12.80;99.90;;;;;;5088138;28;20192;-83
2023/07/27 03:16:30;;;;;;;0.10;0.10;;;12.80;99.90;;;;;;5090282;28;20559;-84
2023/07/27 03:18:56;;;;;;;0.20;0.20;;;12.80;99.90;;;;;;5086531;28;20303;-83
2023/07/27 03:21:22;;;;;;;0.20;0.20;;;12.80;99.90;;;;;;5085536;28;20213;-84
2023/07/27 03:23:49;;;;;;;0.20;0.20;;;12.80;99.90;;;;;;5090305;28;20300;-84
2023/07/27 03:26:15;;;;;;;0.20;0.20;;;12.80;99.90;;;;;;5087691;28;20600;-86
2023/07/27 03:28:41;;;;;;;0.20;0.20;;;12.90;99.90;;;;;;5086180;28;20451;-86
2023/07/27 03:31:23;;;;;;;0.10;0.10;;;12.90;99.90;;;;;;5082121;28;20439;-87
2023/07/27 03:33:49;;;;;;;0.20;0.20;;;12.90;99.90;;;;;;5087699;28;20500;-87
2023/07/27 03:36:16;;;;;;;0.40;0.40;;;12.90;99.90;;;;;;5090877;28;20418;-88
2023/07/27 03:38:42;;;;;;;0.20;0.20;;;12.90;99.90;;;;;;5088723;28;20466;-87
2023/07/27 03:41:07;;;;;;;0.30;0.30;;;12.90;99.90;;;;;;5083739;28;20986;-87
2023/07/27 03:43:33;;;;;;;0.27;0.27;;;12.90;99.90;;;;;;5087436;28;20255;-86
2023/07/27 03:45:58;;;;;;;0.30;0.30;;;12.90;99.90;;;;;;5084751;28;20177;-87
2023/07/27 03:48:25;;;;;;;0.40;0.40;;;12.90;99.90;;;;;;5089741;28;20189;-87
2023/07/27 03:50:51;;;;;;;0.30;0.30;;;12.80;99.90;;;;;;5089731;28;20189;-85
2023/07/27 03:53:17;;;;;;;0.20;0.20;;;12.80;99.90;;;;;;5086973;28;20451;-85
2023/07/27 03:55:42;;;;;;;0.20;0.20;;;12.80;99.90;;;;;;5087856;28;20954;-84
2023/07/27 03:58:08;;;;;;;0.20;0.20;;;12.80;99.90;;;;;;5088062;28;20189;-86
2023/07/27 04:00:34;;;;;;;0.20;0.20;;;12.80;99.90;;;;;;5085043;28;20710;-86
2023/07/27 04:02:59;;;;;;;0.10;0.10;;;12.90;99.90;;;;;;5090141;28;20266;-86
2023/07/27 04:05:25;;;;;;;0.10;0.10;;;12.90;99.90;;;;;;5086600;28;20201;-87
2023/07/27 04:07:51;;;;;;;0.10;0.10;;;12.90;99.90;;;;;;5086284;28;20185;-87
2023/07/27 04:10:18;;;;;;;0.30;0.30;;;12.90;99.90;;;;;;5087492;28;20208;-86
2023/07/27 04:12:43;;;;;;;0.10;0.10;;;12.80;99.90;;;;;;5086924;28;20451;-86
2023/07/27 04:15:09;;;;;;;0.10;0.10;;;12.70;99.90;;;;;;5087295;28;20450;-86
2023/07/27 04:17:35;;;;;;;0.10;0.10;;;12.70;99.90;;;;;;5103344;28;20544;-85
2023/07/27 04:20:00;;;;;;;0.10;0.10;;;12.60;99.90;;;;;;5097372;28;20934;-84
2023/07/27 04:22:26;;;;;;;0.10;0.10;;;12.60;99.90;;;;;;5087839;28;20268;-85
2023/07/27 04:24:51;;;;;;;0.20;0.20;;;12.50;99.90;;;;;;5088635;28;20216;-83
2023/07/27 04:27:17;;;;;;;0.13;0.13;;;12.50;99.90;;;;;;5073237;28;20193;-84
2023/07/27 04:29:42;;;;;;;0.20;0.20;;;12.50;99.90;;;;;;5083787;28;20192;-84
2023/07/27 04:32:08;;;;;;;0.10;0.10;;;12.40;99.90;;;;;;5081886;28;20649;-84
2023/07/27 04:34:34;;;;;;;0.23;0.23;;;12.40;99.90;;;;;;5087936;28;20192;-84
2023/07/27 04:36:59;;;;;;;0.20;0.20;;;12.50;99.90;;;;;;5090158;28;20273;-85
2023/07/27 04:39:25;;;;;;;0.20;0.20;;;12.40;99.90;;;;;;5089577;28;20188;-85
2023/07/27 04:41:50;;;;;;;0.20;0.20;;;12.40;99.90;;;;;;5086749;28;20309;-85
2023/07/27 04:44:16;;;;;;;0.30;0.30;;;12.50;99.90;;;;;;5089631;28;20220;-83
2023/07/27 04:46:41;;;;;;;0.20;0.20;;;12.40;99.90;;;;;;5081326;28;20557;-85
2023/07/27 04:49:07;;;;;;;0.10;0.10;;;12.40;99.90;;;;;;5089019;28;20201;-83
2023/07/27 04:51:33;;;;;;;0.10;0.10;;;12.40;99.90;;;;;;5087005;28;20186;-84
2023/07/27 04:53:59;;;;;;;0.10;0.10;;;12.40;99.90;;;;;;5086729;28;20209;-84
2023/07/27 04:56:24;;;;;;;0.10;0.10;;;12.50;99.90;;;;;;5086285;28;20481;-85
2023/07/27 04:58:50;;;;;;;0.10;0.10;;;12.60;99.90;;;;;;5087636;28;20196;-84
2023/07/27 05:01:15;;;;;;;0.10;0.10;;;12.60;99.90;;;;;;5080877;28;20797;-83
2023/07/27 05:03:41;;;;;;;0.10;0.10;;;12.60;99.90;;;;;;5077403;28;20323;-85
2023/07/27 05:06:06;;;;;;;0.30;0.30;;;12.60;99.90;;;;;;5078845;28;20229;-86
2023/07/27 05:08:32;;;;;;;0.10;0.10;;;12.70;99.90;;;;;;5086975;28;20181;-85
2023/07/27 05:10:58;;;;;;;0.10;0.10;;;12.70;99.90;;;;;;5085369;28;20873;-84
2023/07/27 05:13:24;;;;;;;0.20;0.20;;;12.80;99.90;;;;;;5080655;28;20189;-84
2023/07/27 05:15:49;;;;;;;0.20;0.20;;;12.80;99.90;;;;;;5085823;28;20890;-86
2023/07/27 05:18:15;;;;;;;0.13;0.13;;;12.80;99.90;;;;;;5084623;28;20864;-85
2023/07/27 05:20:40;;;;;;;0.20;0.20;;;12.90;99.90;;;;;;5084272;28;20231;-84
2023/07/27 05:23:06;;;;;;;0.10;0.10;;;12.90;99.90;;;;;;5088625;28;20696;-84
2023/07/27 05:25:31;;;;;;;0.20;0.20;;;12.90;99.90;;;;;;5088102;28;20189;-83
2023/07/27 05:27:57;;;;;;;0.20;0.20;;;13.00;99.90;;;;;;5089304;28;20197;-85
2023/07/27 05:30:23;;;;;;;0.20;0.20;;;13.00;99.90;;;;;;5086057;28;20275;-84
2023/07/27 05:32:48;;;;;;;0.10;0.10;;;13.10;99.90;;;;;;5085132;28;20627;-82
2023/07/27 05:35:14;;;;;;;0.20;0.20;;;13.20;99.90;;;;;;5080681;28;20419;-83
2023/07/27 05:37:46;;;;;;;0.10;0.10;;;13.20;99.90;;;;;;5091311;28;20689;-84
2023/07/27 05:40:14;;;;;;;0.10;0.10;;;13.20;99.90;;;;;;5090797;28;20336;-85
2023/07/27 05:42:40;;;;;;;0.20;0.20;;;13.30;99.90;;;;;;5090238;28;20977;-85
2023/07/27 05:45:06;;;;;;;0.10;0.10;;;13.30;99.90;;;;;;5089744;28;20496;-86
2023/07/27 05:47:32;;;;;;;0.20;0.20;;;13.40;99.90;;;;;;5089261;28;20446;-87
2023/07/27 05:49:58;;;;;;;0.20;0.20;;;13.40;99.90;;;;;;5087529;28;20971;-84
2023/07/27 05:52:24;;;;;;;0.20;0.20;;;13.50;99.90;;;;;;5082136;28;20268;-85
2023/07/27 05:54:50;;;;;;;0.10;0.10;;;13.50;99.90;;;;;;5092479;28;20205;-87
2023/07/27 05:57:15;;;;;;;0.10;0.10;;;13.60;99.90;;;;;;5090627;28;20777;-84
2023/07/27 05:59:41;;;;;;;0.20;0.20;;;13.70;99.90;;;;;;5089650;28;20201;-85
2023/07/27 06:02:06;;;;;;;0.20;0.20;;;13.80;99.90;;;;;;5092532;28;20296;-87
2023/07/27 06:04:33;;;;;;;0.10;0.10;;;13.80;99.90;;;;;;5082324;28;20251;-85
2023/07/27 06:06:58;;;;;;;0.10;0.10;;;13.90;99.90;;;;;;5073292;28;20186;-83
2023/07/27 06:09:25;;;;;;;0.10;0.10;;;13.90;99.90;;;;;;5088161;28;20451;-85
2023/07/27 06:11:51;;;;;;;0.10;0.10;;;14.00;99.90;;;;;;5087229;28;20200;-85
2023/07/27 06:14:17;;;;;;;0.10;0.10;;;14.10;99.90;;;;;;5092186;28;20438;-84
2023/07/27 06:16:42;;;;;;;0.10;0.10;;;14.10;99.90;;;;;;5105305;28;20451;-87
2023/07/27 06:19:08;;;;;;;0.30;0.30;;;14.30;99.90;;;;;;5089370;28;20195;-87
2023/07/27 06:21:33;;;;;;;0.20;0.20;;;14.30;99.90;;;;;;5090397;28;20188;-86
2023/07/27 06:23:59;;;;;;;0.50;0.50;;;14.40;99.90;;;;;;5087895;28;20213;-87
2023/07/27 06:26:24;;;;;;;0.60;0.60;;;14.40;99.90;;;;;;5091838;28;20268;-87
2023/07/27 06:28:50;;;;;;;0.47;0.47;;;14.60;99.90;;;;;;5092075;28;20189;-86
2023/07/27 06:31:15;;;;;;;0.80;0.80;;;14.70;99.90;;;;;;5084835;28;20194;-87
2023/07/27 06:33:41;;;;;;;0.30;0.30;;;14.80;99.90;;;;;;5076613;28;20195;-85
2023/07/27 06:36:07;;;;;;;0.40;0.40;;;14.90;99.90;;;;;;5092288;28;20664;-86
2023/07/27 06:38:33;;;;;;;0.50;0.50;;;15.00;99.90;;;;;;5087697;28;20211;-88
2023/07/27 06:40:59;;;;;;;0.30;0.30;;;15.00;99.90;;;;;;5080329;28;20987;-89
2023/07/27 06:43:24;;;;;;;0.40;0.40;;;15.20;99.90;;;;;;5083012;28;20209;-89
2023/07/27 06:45:50;;;;;;;0.10;0.10;;;15.50;99.90;;;;;;5082084;28;20197;-89
2023/07/27 06:48:16;;;;;;;0.27;0.27;;;15.70;99.90;;;;;;5088203;28;20284;-91
2023/07/27 06:50:41;;;;;;;0.40;0.40;;;15.80;99.90;;;;;;5076768;28;20182;-88
2023/07/27 06:53:07;;;;;;;0.40;0.40;;;15.90;99.90;;;;;;5088842;28;20687;-90
2023/07/27 06:55:32;;;;;;;0.47;0.47;;;16.00;99.90;;;;;;5081228;28;20260;-87
2023/07/27 06:57:58;;;;;;;0.23;0.23;;;15.80;99.90;;;;;;5080963;28;20192;-89
2023/07/27 07:00:24;;;;;;;0.10;0.10;;;15.90;99.90;;;;;;5080871;28;20185;-89
2023/07/27 07:02:50;;;;;;;0.20;0.20;;;15.90;99.90;;;;;;5081481;28;20258;-88
2023/07/27 07:05:15;;;;;;;0.20;0.20;;;15.80;99.90;;;;;;5085935;28;20201;-88
2023/07/27 07:07:42;;;;;;;0.10;0.10;;;15.90;99.90;;;;;;5072654;28;20560;-88
2023/07/27 07:10:08;;;;;;;0.10;0.10;;;15.90;99.90;;;;;;5080181;28;20193;-90
2023/07/27 07:12:33;;;;;;;0.10;0.10;;;16.10;99.90;;;;;;5082529;28;20497;-89
2023/07/27 07:14:59;;;;;;;0.10;0.10;;;16.30;99.90;;;;;;5087083;28;20447;-88
2023/07/27 07:17:24;;;;;;;0.20;0.20;;;16.40;99.90;;;;;;5087539;28;20189;-91
2023/07/27 07:19:50;;;;;;;0.17;0.17;;;16.30;99.90;;;;;;5086978;28;20201;-88
2023/07/27 07:22:16;;;;;;;0.23;0.23;;;16.30;99.90;;;;;;5088045;28;20755;-86
2023/07/27 07:24:41;;;;;;;0.27;0.27;;;16.30;99.90;;;;;;5085976;28;20213;-90
2023/07/27 07:27:07;;;;;;;0.20;0.20;;;16.40;99.90;;;;;;5083818;28;20185;-89
2023/07/27 07:29:32;;;;;;;0.13;0.13;;;16.40;99.90;;;;;;5082858;28;20695;-89
2023/07/27 07:31:58;;;;;;;0.10;0.10;;;16.50;99.90;;;;;;5084033;28;20189;-90
2023/07/27 07:34:24;;;;;;;0.20;0.20;;;16.70;99.90;;;;;;5082472;28;20200;-87
2023/07/27 07:36:49;;;;;;;0.40;0.40;;;16.90;99.90;;;;;;5080052;28;20663;-90
2023/07/27 07:39:15;;;;;;;0.40;0.40;;;16.80;99.90;;;;;;5082261;28;20479;-89
2023/07/27 07:41:40;;;;;;;0.10;0.10;;;16.80;99.90;;;;;;5078028;28;20230;-89
2023/07/27 07:44:06;;;;;;;0.30;0.30;;;16.80;99.90;;;;;;5078328;28;20683;-89
2023/07/27 07:46:31;;;;;;;0.10;0.10;;;17.10;99.90;;;;;;5084289;28;20200;-88
2023/07/27 07:48:57;;;;;;;0.10;0.10;;;17.30;99.90;;;;;;5079065;28;20185;-89
2023/07/27 07:51:23;;;;;;;0.13;0.13;;;17.80;99.90;;;;;;5086387;28;20189;-88
2023/07/27 07:53:48;;;;;;;0.10;0.10;;;17.90;99.90;;;;;;5079173;28;20637;-88
2023/07/27 07:56:15;;;;;;;0.10;0.10;;;17.70;99.90;;;;;;5080434;28;20605;-89
2023/07/27 07:58:41;;;;;;;0.43;0.43;;;17.60;99.90;;;;;;5079211;28;20582;-89
2023/07/27 08:01:07;;;;;;;0.33;0.33;;;17.60;99.90;;;;;;5080370;28;21241;-88
2023/07/27 08:03:33;;;;;;;0.10;0.10;;;17.40;99.90;;;;;;5083070;28;20540;-88
2023/07/27 08:05:59;;;;;;;0.13;0.13;;;17.40;99.90;;;;;;5078022;28;20451;-87
2023/07/27 08:08:24;;;;;;;0.10;0.10;;;17.50;99.90;;;;;;5077238;28;20181;-88
2023/07/27 08:10:51;;;;;;;0.27;0.27;;;17.40;99.90;;;;;;5076327;28;20189;-87
2023/07/27 08:13:17;;;;;;;0.20;0.20;;;17.40;99.90;;;;;;5086818;28;20195;-87
2023/07/27 08:15:53;;;;;;;0.20;0.20;;;17.40;99.90;;;;;;5076878;28;21130;-88
2023/07/27 08:18:19;;;;;;;0.10;0.10;;;17.30;99.90;;;;;;5085198;28;20220;-87
2023/07/27 08:20:44;;;;;;;0.10;0.10;;;17.20;99.90;;;;;;5083334;28;20942;-88
2023/07/27 08:23:10;;;;;;;0.10;0.10;;;17.20;99.90;;;;;;5083633;28;20303;-89
2023/07/27 08:25:37;;;;;;;0.10;0.10;;;17.50;99.90;;;;;;5086783;28;20208;-87
2023/07/27 08:28:03;;;;;;;0.13;0.13;;;17.70;99.90;;;;;;5083880;28;20475;-87
2023/07/27 08:30:28;;;;;;;0.30;0.30;;;17.60;99.90;;;;;;5084386;28;20475;-88
2023/07/27 08:32:54;;;;;;;0.80;0.80;;;17.60;99.90;;;;;;5088893;28;20239;-88
2023/07/27 08:35:20;;;;;;;0.60;0.60;;;17.70;99.90;;;;;;5088161;28;20716;-87
2023/07/27 08:37:45;;;;;;;0.20;0.20;;;18.00;99.90;;;;;;5087801;28;20192;-88
2023/07/27 08:40:11;;;;;;;0.27;0.27;;;18.10;99.90;;;;;;5085502;28;20190;-90
2023/07/27 08:42:37;;;;;;;0.30;0.30;;;17.70;99.90;;;;;;5072912;28;20829;-88
2023/07/27 08:45:03;;;;;;;0.33;0.33;;;17.70;99.90;;;;;;5088015;28;20316;-87
2023/07/27 08:47:28;;;;;;;0.30;0.30;;;17.70;99.90;;;;;;5080293;28;20204;-90
2023/07/27 08:49:55;;;;;;;0.30;0.30;;;18.00;99.90;;;;;;5079226;28;20874;-89
2023/07/27 08:52:23;;;;;;;0.30;0.30;;;18.70;99.90;;;;;;5091469;28;20267;-88
2023/07/27 08:54:49;;;;;;;0.50;0.50;;;19.00;99.90;;;;;;5086563;28;20451;-88
2023/07/27 08:57:15;;;;;;;0.23;0.23;;;18.80;99.90;;;;;;5076853;28;20485;-89
2023/07/27 08:59:41;;;;;;;0.33;0.33;;;18.30;99.90;;;;;;5083713;28;20190;-89
2023/07/27 09:02:07;;;;;;;0.20;0.20;;;18.10;99.90;;;;;;5079851;28;20560;-88
2023/07/27 09:04:32;;;;;;;0.30;0.30;;;18.00;99.90;;;;;;5077599;28;20970;-88
2023/07/27 09:07:06;;;;;;;0.20;0.20;;;17.90;99.90;;;;;;5079317;28;20181;-88
2023/07/27 09:09:32;;;;;;;0.13;0.13;;;17.80;99.90;;;;;;5084409;28;20973;-89
2023/07/27 09:11:58;;;;;;;0.10;0.10;;;18.00;99.90;;;;;;5084766;28;21091;-88
2023/07/27 09:14:25;;;;;;;0.20;0.20;;;18.10;99.90;;;;;;5079875;28;20180;-87
2023/07/27 09:16:50;;;;;;;0.50;0.50;;;18.20;99.90;;;;;;5079707;28;20193;-89
2023/07/27 09:19:17;;;;;;;0.20;0.20;;;18.50;99.90;;;;;;5077861;28;20432;-89
2023/07/27 09:21:45;;;;;;;0.30;0.30;;;18.80;99.90;;;;;;5082080;28;20185;-88
2023/07/27 09:24:11;;;;;;;0.00;0.00;;;18.90;99.90;;;;;;5090224;28;20490;-88
2023/07/27 09:26:48;;;;;;;0.00;0.00;;;18.70;99.90;;;;;;5089000;28;20431;-85
2023/07/27 09:29:19;;;;;;;0.30;0.30;;;18.50;99.90;;;;;;5090320;28;20450;-87
2023/07/27 09:31:52;;;;;;;0.10;0.10;;;18.60;99.90;;;;;;5090219;28;20446;-89
2023/07/27 09:34:20;;;;;;;0.10;0.10;;;18.40;99.90;;;;;;5089899;28;20454;-88
2023/07/27 09:36:46;;;;;;;0.23;0.23;;;18.30;99.90;;;;;;5088270;28;20530;-89
2023/07/27 09:39:13;;;;;;;0.00;0.00;;;18.20;99.90;;;;;;5090087;28;21112;-87
2023/07/27 09:41:43;;;;;;;0.13;0.13;;;18.10;99.90;;;;;;5087935;28;20986;-89
2023/07/27 09:44:15;;;;;;;0.40;0.40;;;18.00;99.90;;;;;;5089508;28;20486;-87
2023/07/27 09:46:42;;;;;;;0.40;0.40;;;18.00;99.90;;;;;;5087787;28;20435;-88
2023/07/27 09:49:08;;;;;;;0.20;0.20;;;18.00;99.90;;;;;;5088535;28;20464;-88
2023/07/27 09:51:34;;;;;;;0.10;0.10;;;18.10;99.90;;;;;;5079747;28;20928;-87
2023/07/27 09:54:00;;;;;;;0.10;0.10;;;18.20;99.90;;;;;;5086029;28;20443;-88
2023/07/27 09:56:27;;;;;;;0.23;0.23;;;18.10;99.90;;;;;;5086757;28;20197;-89
2023/07/27 09:58:53;;;;;;;0.10;0.10;;;18.20;99.90;;;;;;5089606;28;20504;-88
2023/07/27 10:01:19;;;;;;;0.10;0.10;;;18.20;99.90;;;;;;5089279;28;20523;-88
2023/07/27 10:03:45;;;;;;;0.10;0.10;;;18.30;99.90;;;;;;5088935;28;20558;-87
2023/07/27 10:06:14;;;;;;;0.10;0.10;;;18.40;99.90;;;;;;5085151;28;20182;-88
2023/07/27 10:08:40;;;;;;;0.20;0.20;;;18.60;99.90;;;;;;5089138;28;20530;-84
2023/07/27 10:11:06;;;;;;;0.20;0.20;;;18.60;99.90;;;;;;5084672;28;20460;-88
2023/07/27 10:13:37;;;;;;;0.20;0.20;;;18.40;99.90;;;;;;5084918;28;20443;-87
2023/07/27 10:16:05;;;;;;;0.10;0.10;;;18.60;99.90;;;;;;5087733;28;20196;-89
2023/07/27 10:18:31;;;;;;;0.00;0.00;;;18.60;99.90;;;;;;5088660;28;20446;-88
2023/07/27 10:21:20;;;;;;;0.00;0.00;;;18.90;99.90;;;;;;5082261;28;20446;-90
2023/07/27 10:24:03;;;;;;;0.10;0.10;;;19.00;99.90;;;;;;5088494;28;20491;-87
2023/07/27 10:26:52;;;;;;;0.10;0.10;;;19.30;99.90;;;;;;5079510;28;20434;-86
2023/07/27 10:29:27;;;;;;;0.10;0.10;;;19.70;99.90;;;;;;5092231;28;20482;-89
2023/07/27 10:32:00;;;;;;;0.10;0.10;;;19.50;99.90;;;;;;5093703;28;20441;-87
2023/07/27 10:34:27;;;;;;;0.00;0.00;;;19.40;99.90;;;;;;5091429;28;20990;-89
2023/07/27 10:37:00;;;;;;;0.00;0.00;;;19.20;99.90;;;;;;5090430;28;20499;-86
2023/07/27 10:39:28;;;;;;;0.20;0.20;;;19.20;99.90;;;;;;5089463;28;20455;-87
2023/07/27 10:42:01;;;;;;;0.10;0.10;;;19.00;99.90;;;;;;5089017;28;20527;-84
2023/07/27 10:44:42;;;;;;;0.00;0.00;;;18.40;99.90;;;;;;5089752;28;20486;-87
2023/07/27 10:47:09;;;;;;;0.10;0.10;;;18.30;99.90;;;;;;5083890;28;20450;-88
2023/07/27 10:49:45;;;;;;;0.00;0.00;;;18.20;99.90;;;;;;5080888;28;20494;-86
2023/07/27 10:52:18;;;;;;;0.00;0.00;;;18.20;99.90;;;;;;5102229;28;20430;-90
2023/07/27 10:54:45;;;;;;;0.10;0.10;;;18.10;99.90;;;;;;5091130;28;20437;-89
2023/07/27 10:57:13;;;;;;;0.00;0.00;;;18.00;99.90;;;;;;5086420;28;20958;-88
2023/07/27 10:59:40;;;;;;;0.10;0.10;;;18.00;99.90;;;;;;5092493;28;20884;-89
2023/07/27 11:02:12;;;;;;;0.07;0.07;;;18.00;99.90;;;;;;5088081;28;20438;-90
2023/07/27 11:04:39;;;;;;;0.00;0.00;;;17.90;99.90;;;;;;5082099;28;20478;-87
2023/07/27 11:07:05;;;;;;;0.10;0.10;;;18.00;99.90;;;;;;5087426;28;20431;-89
2023/07/27 11:09:30;;;;;;;0.30;0.30;;;18.00;99.90;;;;;;5089239;28;20588;-90
2023/07/27 11:12:00;;;;;;;0.30;0.30;;;18.10;99.90;;;;;;5082672;28;20181;-89
2023/07/27 11:14:26;;;;;;;0.10;0.10;;;18.20;99.90;;;;;;5087686;28;20181;-92
2023/07/27 11:16:52;;;;;;;0.10;0.10;;;18.10;99.90;;;;;;5087414;28;20435;-90
2023/07/27 11:19:18;;;;;;;0.20;0.20;;;18.10;99.90;;;;;;5089214;28;20189;-91
2023/07/27 11:21:43;;;;;;;0.00;0.00;;;17.90;99.90;;;;;;5087681;28;20169;-90
2023/07/27 11:24:10;;;;;;;0.00;0.00;;;17.90;99.90;;;;;;5088609;28;20616;-87
2023/07/27 11:26:37;;;;;;;0.20;0.20;;;17.80;99.90;;;;;;5089707;28;20181;-89
2023/07/27 11:29:04;;;;;;;0.00;0.00;;;17.80;99.90;;;;;;5079703;28;20801;-88
2023/07/27 11:31:29;;;;;;;0.10;0.10;;;17.80;99.90;;;;;;5084380;28;20531;-88
2023/07/27 11:33:59;;;;;;;0.00;0.00;;;17.70;99.90;;;;;;5083830;28;20589;-86
2023/07/27 11:36:33;;;;;;;0.10;0.10;;;17.60;99.90;;;;;;5087975;28;20181;-85
2023/07/27 11:38:59;;;;;;;0.00;0.00;;;17.70;99.90;;;;;;5082284;28;20987;-89
2023/07/27 11:41:27;;;;;;;0.00;0.00;;;17.80;99.90;;;;;;5088692;28;21055;-89
2023/07/27 11:43:55;;;;;;;0.10;0.10;;;18.10;99.90;;;;;;5087833;28;20471;-87
2023/07/27 11:46:26;;;;;;;0.10;0.10;;;18.10;99.90;;;;;;5087646;28;20806;-89
2023/07/27 11:48:52;;;;;;;0.00;0.00;;;17.80;99.90;;;;;;5083699;28;20470;-90
2023/07/27 11:51:18;;;;;;;0.20;0.20;;;17.50;99.90;;;;;;5086298;28;20541;-88
2023/07/27 11:53:46;;;;;;;0.10;0.10;;;17.40;99.90;;;;;;5090970;28;20934;-90
2023/07/27 11:56:13;;;;;;;0.00;0.00;;;17.50;99.90;;;;;;5085307;28;20195;-87
2023/07/27 11:58:38;;;;;;;0.00;0.00;;;17.40;99.90;;;;;;5087919;28;20450;-88
2023/07/27 12:01:04;;;;;;;0.00;0.00;;;17.50;99.90;;;;;;5076902;28;20538;-89
2023/07/27 12:03:34;;;;;;;0.17;0.17;;;17.60;99.90;;;;;;5083124;28;20223;-88
2023/07/27 12:06:03;;;;;;;0.10;0.10;;;17.70;99.90;;;;;;5082682;28;20181;-88
2023/07/27 12:08:30;;;;;;;0.30;0.30;;;17.60;99.90;;;;;;5091594;28;20850;-87
2023/07/27 12:10:59;;;;;;;0.10;0.10;;;17.40;99.90;;;;;;5090252;28;20860;-88
2023/07/27 12:13:26;;;;;;;0.10;0.10;;;17.40;99.90;;;;;;5080826;28;20543;-87
2023/07/27 12:15:58;;;;;;;0.10;0.10;;;17.50;99.90;;;;;;5084097;28;20568;-87
2023/07/27 12:18:26;;;;;;;0.00;0.00;;;17.60;99.90;;;;;;5086182;28;20473;-87
2023/07/27 12:20:52;;;;;;;0.10;0.10;;;17.50;99.90;;;;;;5085005;28;20450;-87
2023/07/27 12:23:18;;;;;;;0.10;0.10;;;17.50;99.90;;;;;;5069278;28;20428;-87
2023/07/27 12:25:43;;;;;;;0.10;0.10;;;17.50;99.90;;;;;;5089737;28;20434;-88
2023/07/27 12:28:09;;;;;;;0.30;0.30;;;17.50;99.90;;;;;;5089872;28;20188;-86
2023/07/27 12:30:34;;;;;;;0.30;0.30;;;17.40;99.90;;;;;;5083140;28;20238;-88
2023/07/27 12:33:00;;;;;;;0.10;0.10;;;17.50;99.90;;;;;;5087305;28;20189;-88
2023/07/27 12:35:27;;;;;;;0.10;0.10;;;17.30;99.90;;;;;;5085112;28;20180;-90
2023/07/27 12:37:52;;;;;;;0.10;0.10;;;17.20;99.90;;;;;;5080998;28;20268;-88
2023/07/27 12:40:18;;;;;;;0.10;0.10;;;17.20;99.90;;;;;;5087176;28;20534;-89
2023/07/27 12:42:43;;;;;;;0.20;0.20;;;17.20;99.90;;;;;;5081610;28;20231;-88
2023/07/27 12:45:09;;;;;;;0.10;0.10;;;17.30;99.90;;;;;;5085986;28;20270;-88
2023/07/27 12:47:35;;;;;;;0.20;0.20;;;17.20;99.90;;;;;;5080306;28;20898;-87